ADDS METAR Data INFO
IDs: Format: Raw Decoded Include TAF

Data at: 0842 UTC 27 Jun 2017

KBRO 270834Z AUTO 06003KT 10SM SCT028 BKN036 25/24 A2992 RMK AO2 T02500244
KBRO 270811Z AUTO 00000KT 10SM BKN027 26/24 A2993 RMK AO2 T02560244
KBRO 270753Z AUTO 14003KT 10SM FEW021 25/24 A2993 RMK AO2 SLP135 T02500244
KBRO 270653Z AUTO 00000KT 10SM FEW032 26/24 A2995 RMK AO2 SLP139 T02560239
KBRO 270553Z AUTO 07003KT 10SM CLR 26/24 A2995 RMK AO2 SLP142 T02560244 10289 20256 403280239 50004
KBRO 270453Z 00000KT 10SM CLR 26/24 A2996 RMK AO2 SLP143 T02560239
KBRO 270353Z 08004KT 10SM CLR 26/23 A2995 RMK AO2 SLP139 T02610233
KBRO 270253Z 10003KT 10SM CLR 27/23 A2994 RMK AO2 SLP138 T02670233 50003
KBRO 270153Z 10005KT 10SM CLR 27/23 A2994 RMK AO2 SLP138 T02670228
KBRO 270053Z 09009KT 10SM CLR 28/23 A2994 RMK AO2 SLP137 T02780233
KBRO 262353Z 11012KT 10SM FEW021 29/23 A2993 RMK AO2 SLP135 T02890233 10328 20289 56008
KBRO 262253Z 07014KT 10SM SCT024 29/24 A2994 RMK AO2 SLP135 T02890239
KBRO 262153Z 11010KT 10SM FEW023 SCT034 SCT043 30/24 A2995 RMK AO2 SLP139 T03000239
KBRO 262053Z 09013KT 10SM FEW027 BKN037 31/24 A2996 RMK AO2 SLP143 T03110239 56016
KBRO 261953Z 09010G18KT 10SM FEW029 BKN036 OVC060 31/23 A2997 RMK AO2 SLP146 T03060233
KBRO 261853Z 04010KT 10SM FEW035 FEW043 SCT060 32/23 A2999 RMK AO2 SLP153 T03170233
KBRO 261753Z 06007KT 10SM SCT038 31/23 A3000 RMK AO2 SLP159 T03060228 10317 20239 58012
KBRO 261653Z 08008KT 10SM BKN033 OVC043 31/23 A3002 RMK AO2 SLP165 T03060233
KBRO 261645Z 08009KT 10SM SCT030 OVC035 31/23 A3002 RMK AO2 T03110233
KBRO 261553Z 32005KT 10SM SCT020 BKN024 OVC070 30/25 A3003 RMK AO2 SLP168 T03000250
KBRO 261531Z 34007KT 10SM BKN021 29/24 A3003 RMK AO2 T02890239
KBRO 261453Z 04005KT 10SM FEW021 29/24 A3004 RMK AO2 SLP170 T02890239 50009
KBRO 261353Z 01005KT 10SM FEW029 28/25 A3004 RMK AO2 SLP172 T02830250
KBRO 261253Z 35004KT 10SM CLR 26/24 A3003 RMK AO2 SLP167 T02610239
KBRO 261153Z 34003KT 10SM CLR 24/23 A3001 RMK AO2 SLP162 70155 T02390233 10256 20239 53006
KBRO 261053Z AUTO 35004KT 10SM CLR 24/23 A3000 RMK AO2 SLP159 T02390233
KBRO 260953Z AUTO 33003KT 10SM CLR 24/23 A3000 RMK AO2 SLP158 T02440233
KBRO 260853Z AUTO 00000KT 10SM CLR 24/23 A3000 RMK AO2 SLP156 T02440233 58010
KBRO 260803Z AUTO 08004KT 10SM FEW018 SCT023 BKN065 25/24 A3001 RMK AO2 T02500239
KBRO 260753Z AUTO 10006KT 10SM SCT018 BKN023 26/24 A3002 RMK AO2 SLP162 T02560239
KBRO 260748Z AUTO 09006KT 10SM SCT018 BKN023 26/24 A3002 RMK AO2
KBRO 260653Z AUTO 08003KT 10SM CLR 26/24 A3002 RMK AO2 SLP166 T02560239
KBRO 260553Z AUTO 10003KT 10SM CLR 26/24 A3004 RMK AO2 SLP171 T02560244 10283 20250 403170228 58001
KBRO 260453Z 12004KT 10SM CLR 26/24 A3004 RMK AO2 SLP172 T02560244
KBRO 260353Z 12005KT 10SM CLR 26/24 A3005 RMK AO2 SLP173 T02610244
KBRO 260253Z 11006KT 10SM FEW018 FEW026 SCT041 27/24 A3004 RMK AO2 SLP172 T02670244 51011
KBRO 260153Z 09004KT 10SM CLR 27/24 A3004 RMK AO2 SLP171 T02720244
KBRO 260053Z 08007KT 10SM CLR 28/24 A3002 RMK AO2 SLP165 T02830244
KBRO 252353Z 09007KT 10SM CLR 28/24 A3001 RMK AO2 SLP161 60087 T02830239 10317 20250 57009
KBRO 252253Z 11005KT 10SM FEW035 FEW048 28/26 A3002 RMK AO2 SLP163 T02830256
KBRO 252153Z 09003KT 10SM SCT026 SCT032 28/25 A3003 RMK AO2 LTG DSNT S RAB15E33 SLP168 P0009 T02830250
KBRO 252053Z 28005KT 10SM SCT031 BKN042 27/24 A3004 RMK AO2 RAB1957E12B39E50 SLP171 P0000 60078 T02670239 58002


Page loaded:  08:42 UTC  |   01:42 AM Pacific  |   02:42 AM Mountain  |   03:42 AM Central  |   04:42 AM Eastern

 

ADVISORIES

FORECASTS

FORECASTS

OBSERVATIONS

USER TOOLS

ABOUT US